sensor_id;sensor_type;location;lat;lon;timestamp;pressure;altitude;pressure_sealevel;temperature;humidity
62712;BME280;48772;55.586;37.730;2023-10-09T00:01:51;96740.66;;;2.24;100.00
62712;BME280;48772;55.586;37.730;2023-10-09T00:04:17;96730.88;;;2.16;100.00
62712;BME280;48772;55.586;37.730;2023-10-09T00:06:43;96764.53;;;2.30;100.00
62712;BME280;48772;55.586;37.730;2023-10-09T00:09:10;96706.84;;;1.92;100.00
62712;BME280;48772;55.586;37.730;2023-10-09T00:11:48;96775.47;;;2.35;100.00
62712;BME280;48772;55.586;37.730;2023-10-09T00:14:14;96775.19;;;2.38;100.00
62712;BME280;48772;55.586;37.730;2023-10-09T00:16:44;96783.38;;;2.35;100.00
62712;BME280;48772;55.586;37.730;2023-10-09T00:19:14;96780.31;;;2.30;100.00
62712;BME280;48772;55.586;37.730;2023-10-09T00:21:48;96788.06;;;2.32;100.00
62712;BME280;48772;55.586;37.730;2023-10-09T00:24:15;96783.66;;;2.32;100.00
62712;BME280;48772;55.586;37.730;2023-10-09T00:26:51;96799.00;;;2.37;100.00
62712;BME280;48772;55.586;37.730;2023-10-09T00:29:18;96793.47;;;2.30;100.00
62712;BME280;48772;55.586;37.730;2023-10-09T00:31:54;96762.25;;;2.08;100.00
62712;BME280;48772;55.586;37.730;2023-10-09T00:34:49;96785.06;;;2.17;100.00
62712;BME280;48772;55.586;37.730;2023-10-09T00:37:18;96795.69;;;2.25;100.00
62712;BME280;48772;55.586;37.730;2023-10-09T00:39:49;96777.88;;;2.10;100.00
62712;BME280;48772;55.586;37.730;2023-10-09T00:42:26;96822.94;;;2.34;100.00
62712;BME280;48772;55.586;37.730;2023-10-09T00:44:58;96814.81;;;2.27;100.00
62712;BME280;48772;55.586;37.730;2023-10-09T00:47:34;96837.47;;;2.38;100.00
62712;BME280;48772;55.586;37.730;2023-10-09T00:50:07;96842.44;;;2.41;100.00
62712;BME280;48772;55.586;37.730;2023-10-09T00:52:47;96843.38;;;2.40;100.00
62712;BME280;48772;55.586;37.730;2023-10-09T00:55:20;96854.47;;;2.43;100.00
62712;BME280;48772;55.586;37.730;2023-10-09T00:58:05;96852.13;;;2.40;100.00
62712;BME280;48772;55.586;37.730;2023-10-09T01:00:39;96848.63;;;2.40;100.00
62712;BME280;48772;55.586;37.730;2023-10-09T01:03:17;96839.13;;;2.29;100.00
62712;BME280;48772;55.586;37.730;2023-10-09T01:05:49;96843.28;;;2.32;100.00
62712;BME280;48772;55.586;37.730;2023-10-09T01:08:25;96852.25;;;2.39;100.00
62712;BME280;48772;55.586;37.730;2023-10-09T01:11:10;96847.56;;;2.33;100.00
62712;BME280;48772;55.586;37.730;2023-10-09T01:13:41;96841.63;;;2.31;100.00
62712;BME280;48772;55.586;37.730;2023-10-09T01:16:08;96869.41;;;2.43;100.00
62712;BME280;48772;55.586;37.730;2023-10-09T01:18:45;96877.16;;;2.44;100.00
62712;BME280;48772;55.586;37.730;2023-10-09T01:21:12;96857.94;;;2.25;100.00
62712;BME280;48772;55.586;37.730;2023-10-09T01:23:45;96888.06;;;2.40;100.00
62712;BME280;48772;55.586;37.730;2023-10-09T01:26:37;96897.66;;;2.41;100.00
62712;BME280;48772;55.586;37.730;2023-10-09T01:29:17;96897.94;;;2.38;100.00
62712;BME280;48772;55.586;37.730;2023-10-09T01:31:51;96908.97;;;2.41;100.00
62712;BME280;48772;55.586;37.730;2023-10-09T01:34:33;96917.00;;;2.40;100.00
62712;BME280;48772;55.586;37.730;2023-10-09T01:37:12;96894.72;;;2.25;100.00
62712;BME280;48772;55.586;37.730;2023-10-09T01:39:59;96921.59;;;2.38;100.00
62712;BME280;48772;55.586;37.730;2023-10-09T01:42:41;96913.28;;;2.23;100.00
62712;BME280;48772;55.586;37.730;2023-10-09T01:45:13;96903.72;;;2.22;100.00
62712;BME280;48772;55.586;37.730;2023-10-09T01:47:45;96933.75;;;2.39;100.00
62712;BME280;48772;55.586;37.730;2023-10-09T01:50:17;96951.19;;;2.40;100.00
62712;BME280;48772;55.586;37.730;2023-10-09T01:53:03;96911.34;;;2.25;100.00
62712;BME280;48772;55.586;37.730;2023-10-09T01:55:32;96939.00;;;2.39;100.00
62712;BME280;48772;55.586;37.730;2023-10-09T01:58:07;96948.97;;;2.45;100.00
62712;BME280;48772;55.586;37.730;2023-10-09T02:00:50;96915.91;;;2.23;100.00
62712;BME280;48772;55.586;37.730;2023-10-09T02:03:27;96949.13;;;2.34;100.00
62712;BME280;48772;55.586;37.730;2023-10-09T02:05:56;96969.44;;;2.41;100.00
62712;BME280;48772;55.586;37.730;2023-10-09T02:08:27;96982.06;;;2.47;100.00
62712;BME280;48772;55.586;37.730;2023-10-09T02:11:01;96979.69;;;2.44;100.00
62712;BME280;48772;55.586;37.730;2023-10-09T02:13:29;96979.69;;;2.44;100.00
62712;BME280;48772;55.586;37.730;2023-10-09T02:15:57;96977.47;;;2.40;100.00
62712;BME280;48772;55.586;37.730;2023-10-09T02:18:42;97000.59;;;2.55;100.00
62712;BME280;48772;55.586;37.730;2023-10-09T02:21:31;96994.09;;;2.50;100.00
62712;BME280;48772;55.586;37.730;2023-10-09T02:24:05;96996.03;;;2.48;100.00
62712;BME280;48772;55.586;37.730;2023-10-09T02:26:35;96965.56;;;2.36;100.00
62712;BME280;48772;55.586;37.730;2023-10-09T02:29:04;97004.91;;;2.56;100.00
62712;BME280;48772;55.586;37.730;2023-10-09T02:31:42;97010.28;;;2.64;100.00
62712;BME280;48772;55.586;37.730;2023-10-09T02:34:10;96997.00;;;2.56;100.00
62712;BME280;48772;55.586;37.730;2023-10-09T02:36:37;97019.31;;;2.62;100.00
62712;BME280;48772;55.586;37.730;2023-10-09T02:39:15;97020.38;;;2.59;100.00
62712;BME280;48772;55.586;37.730;2023-10-09T02:42:07;97032.16;;;2.65;100.00
62712;BME280;48772;55.586;37.730;2023-10-09T02:44:39;97023.59;;;2.63;100.00
62712;BME280;48772;55.586;37.730;2023-10-09T02:47:06;97049.47;;;2.67;100.00
62712;BME280;48772;55.586;37.730;2023-10-09T02:49:38;97023.31;;;2.56;100.00
62712;BME280;48772;55.586;37.730;2023-10-09T02:52:07;97037.00;;;2.69;100.00
62712;BME280;48772;55.586;37.730;2023-10-09T02:54:33;97052.78;;;2.69;100.00
62712;BME280;48772;55.586;37.730;2023-10-09T02:57:07;97053.63;;;2.70;100.00
62712;BME280;48772;55.586;37.730;2023-10-09T02:59:34;97054.75;;;2.67;100.00
62712;BME280;48772;55.586;37.730;2023-10-09T03:02:04;97063.03;;;2.72;100.00
62712;BME280;48772;55.586;37.730;2023-10-09T03:04:30;97060.00;;;2.67;100.00
62712;BME280;48772;55.586;37.730;2023-10-09T03:06:59;97075.06;;;2.75;100.00
62712;BME280;48772;55.586;37.730;2023-10-09T03:09:25;97076.72;;;2.76;100.00
62712;BME280;48772;55.586;37.730;2023-10-09T03:11:55;97074.94;;;2.76;100.00
62712;BME280;48772;55.586;37.730;2023-10-09T03:14:25;97073.56;;;2.72;100.00
62712;BME280;48772;55.586;37.730;2023-10-09T03:16:52;97083.81;;;2.75;100.00
62712;BME280;48772;55.586;37.730;2023-10-09T03:19:18;97066.22;;;2.66;100.00
62712;BME280;48772;55.586;37.730;2023-10-09T03:21:44;97068.84;;;2.66;100.00
62712;BME280;48772;55.586;37.730;2023-10-09T03:24:12;97087.97;;;2.78;100.00
62712;BME280;48772;55.586;37.730;2023-10-09T03:26:38;97092.81;;;2.73;100.00
62712;BME280;48772;55.586;37.730;2023-10-09T03:29:04;97085.72;;;2.73;100.00
62712;BME280;48772;55.586;37.730;2023-10-09T03:31:36;97103.47;;;2.81;100.00
62712;BME280;48772;55.586;37.730;2023-10-09T03:34:04;97094.88;;;2.69;100.00
62712;BME280;48772;55.586;37.730;2023-10-09T03:36:30;97114.81;;;2.81;100.00
62712;BME280;48772;55.586;37.730;2023-10-09T03:38:57;97101.78;;;2.70;100.00
62712;BME280;48772;55.586;37.730;2023-10-09T03:41:25;97102.09;;;2.67;100.00
62712;BME280;48772;55.586;37.730;2023-10-09T03:43:55;97119.53;;;2.87;100.00
62712;BME280;48772;55.586;37.730;2023-10-09T03:46:21;97120.38;;;2.88;100.00
62712;BME280;48772;55.586;37.730;2023-10-09T03:48:49;97134.22;;;2.90;100.00
62712;BME280;48772;55.586;37.730;2023-10-09T03:51:15;97134.78;;;2.93;100.00
62712;BME280;48772;55.586;37.730;2023-10-09T03:53:52;97128.56;;;2.94;100.00
62712;BME280;48772;55.586;37.730;2023-10-09T03:56:21;97146.41;;;2.91;100.00
62712;BME280;48772;55.586;37.730;2023-10-09T03:58:48;97136.03;;;2.89;100.00
62712;BME280;48772;55.586;37.730;2023-10-09T04:01:17;97107.88;;;2.71;100.00
62712;BME280;48772;55.586;37.730;2023-10-09T04:03:49;97146.69;;;2.97;100.00
62712;BME280;48772;55.586;37.730;2023-10-09T04:06:24;97143.38;;;2.95;100.00
62712;BME280;48772;55.586;37.730;2023-10-09T04:09:03;97144.06;;;2.88;100.00
62712;BME280;48772;55.586;37.730;2023-10-09T04:11:48;97146.41;;;2.91;100.00
62712;BME280;48772;55.586;37.730;2023-10-09T04:14:23;97124.78;;;2.78;100.00
62712;BME280;48772;55.586;37.730;2023-10-09T04:16:59;97153.88;;;2.95;100.00
62712;BME280;48772;55.586;37.730;2023-10-09T04:19:51;97171.34;;;2.96;100.00
62712;BME280;48772;55.586;37.730;2023-10-09T04:22:40;97174.81;;;2.97;100.00
62712;BME280;48772;55.586;37.730;2023-10-09T04:25:08;97178.66;;;2.83;100.00
62712;BME280;48772;55.586;37.730;2023-10-09T04:27:41;97194.59;;;2.82;100.00
62712;BME280;48772;55.586;37.730;2023-10-09T04:30:07;97193.03;;;2.70;100.00
62712;BME280;48772;55.586;37.730;2023-10-09T04:32:34;97198.56;;;2.67;100.00
62712;BME280;48772;55.586;37.730;2023-10-09T04:35:01;97210.34;;;2.72;100.00
62712;BME280;48772;55.586;37.730;2023-10-09T04:37:48;97208.97;;;2.68;100.00
62712;BME280;48772;55.586;37.730;2023-10-09T04:40:30;97209.22;;;2.65;100.00
62712;BME280;48772;55.586;37.730;2023-10-09T04:43:18;97205.63;;;2.66;100.00
62712;BME280;48772;55.586;37.730;2023-10-09T04:45:47;97217.28;;;2.73;100.00
62712;BME280;48772;55.586;37.730;2023-10-09T04:48:37;97212.47;;;2.78;100.00
62712;BME280;48772;55.586;37.730;2023-10-09T04:51:21;97141.44;;;2.39;100.00
62712;BME280;48772;55.586;37.730;2023-10-09T04:54:10;97224.78;;;2.87;100.00
62712;BME280;48772;55.586;37.730;2023-10-09T04:57:06;97178.31;;;2.58;100.00
62712;BME280;48772;55.586;37.730;2023-10-09T05:00:09;97241.44;;;2.97;100.00
62712;BME280;48772;55.586;37.730;2023-10-09T05:03:35;97242.69;;;2.93;100.00
62712;BME280;48772;55.586;37.730;2023-10-09T05:06:11;97177.59;;;2.46;100.00
62712;BME280;48772;55.586;37.730;2023-10-09T05:08:59;97245.56;;;2.81;100.00
62712;BME280;48772;55.586;37.730;2023-10-09T05:11:34;97265.13;;;2.97;100.00
62712;BME280;48772;55.586;37.730;2023-10-09T05:14:22;97226.91;;;2.63;100.00
62712;BME280;48772;55.586;37.730;2023-10-09T05:17:10;97231.09;;;2.56;100.00
62712;BME280;48772;55.586;37.730;2023-10-09T05:19:41;97272.09;;;2.68;100.00
62712;BME280;48772;55.586;37.730;2023-10-09T05:22:09;97261.31;;;2.71;100.00
62712;BME280;48772;55.586;37.730;2023-10-09T05:24:58;97249.91;;;2.61;100.00
62712;BME280;48772;55.586;37.730;2023-10-09T05:27:25;97263.00;;;2.82;100.00
62712;BME280;48772;55.586;37.730;2023-10-09T05:30:11;97283.53;;;2.88;100.00
62712;BME280;48772;55.586;37.730;2023-10-09T05:32:54;97204.56;;;2.39;100.00
62712;BME280;48772;55.586;37.730;2023-10-09T05:35:25;97284.34;;;2.88;100.00
62712;BME280;48772;55.586;37.730;2023-10-09T05:38:08;97297.41;;;2.99;100.00
62712;BME280;48772;55.586;37.730;2023-10-09T05:40:50;97294.75;;;2.99;100.00
62712;BME280;48772;55.586;37.730;2023-10-09T05:43:21;97309.06;;;3.06;100.00
62712;BME280;48772;55.586;37.730;2023-10-09T05:46:13;97248.06;;;2.82;100.00
62712;BME280;48772;55.586;37.730;2023-10-09T05:48:42;97300.34;;;3.06;100.00
62712;BME280;48772;55.586;37.730;2023-10-09T05:51:11;97302.66;;;2.99;100.00
62712;BME280;48772;55.586;37.730;2023-10-09T05:54:00;97269.94;;;2.92;100.00
62712;BME280;48772;55.586;37.730;2023-10-09T05:56:59;97316.84;;;3.17;100.00
62712;BME280;48772;55.586;37.730;2023-10-09T05:59:54;97337.13;;;3.26;100.00
62712;BME280;48772;55.586;37.730;2023-10-09T06:02:39;97336.16;;;3.27;100.00
62712;BME280;48772;55.586;37.730;2023-10-09T06:05:24;97305.16;;;3.01;100.00
62712;BME280;48772;55.586;37.730;2023-10-09T06:08:18;97350.19;;;3.37;100.00
62712;BME280;48772;55.586;37.730;2023-10-09T06:10:51;97333.78;;;3.34;100.00
62712;BME280;48772;55.586;37.730;2023-10-09T06:13:32;97316.84;;;3.17;100.00
62712;BME280;48772;55.586;37.730;2023-10-09T06:16:04;97314.47;;;3.14;100.00
62712;BME280;48772;55.586;37.730;2023-10-09T06:18:59;97343.22;;;3.36;100.00
62712;BME280;48772;55.586;37.730;2023-10-09T06:21:39;97344.88;;;3.28;100.00
62712;BME280;48772;55.586;37.730;2023-10-09T06:24:07;97371.41;;;3.45;100.00
62712;BME280;48772;55.586;37.730;2023-10-09T06:26:46;97326.13;;;3.21;100.00
62712;BME280;48772;55.586;37.730;2023-10-09T06:29:29;97364.88;;;3.40;100.00
62712;BME280;48772;55.586;37.730;2023-10-09T06:32:08;97377.94;;;3.51;100.00
62712;BME280;48772;55.586;37.730;2023-10-09T06:34:52;97383.88;;;3.53;100.00
62712;BME280;48772;55.586;37.730;2023-10-09T06:37:19;97386.66;;;3.51;100.00
62712;BME280;48772;55.586;37.730;2023-10-09T06:39:56;97385.56;;;3.44;100.00
62712;BME280;48772;55.586;37.730;2023-10-09T06:42:28;97398.88;;;3.53;100.00
62712;BME280;48772;55.586;37.730;2023-10-09T06:45:07;97326.66;;;3.06;100.00
62712;BME280;48772;55.586;37.730;2023-10-09T06:47:34;97380.69;;;3.40;100.00
62712;BME280;48772;55.586;37.730;2023-10-09T06:50:20;97392.91;;;3.50;100.00
62712;BME280;48772;55.586;37.730;2023-10-09T06:52:51;97351.53;;;3.22;100.00
62712;BME280;48772;55.586;37.730;2023-10-09T06:55:45;97392.75;;;3.52;100.00
62712;BME280;48772;55.586;37.730;2023-10-09T06:58:20;97395.69;;;3.58;100.00
62712;BME280;48772;55.586;37.730;2023-10-09T07:00:55;97408.94;;;3.78;100.00
62712;BME280;48772;55.586;37.730;2023-10-09T07:03:26;97399.50;;;3.85;100.00
62712;BME280;48772;55.586;37.730;2023-10-09T07:06:06;97431.72;;;4.07;100.00
62712;BME280;48772;55.586;37.730;2023-10-09T07:09:12;97430.19;;;4.14;100.00
62712;BME280;48772;55.586;37.730;2023-10-09T07:11:43;97436.72;;;4.20;100.00
62712;BME280;48772;55.586;37.730;2023-10-09T07:14:18;97434.22;;;4.18;100.00
62712;BME280;48772;55.586;37.730;2023-10-09T07:22:01;97448.66;;;4.24;100.00
62712;BME280;48772;55.586;37.730;2023-10-09T07:24:55;97407.00;;;3.99;100.00
62712;BME280;48772;55.586;37.730;2023-10-09T07:27:49;97402.03;;;3.96;100.00
62712;BME280;48772;55.586;37.730;2023-10-09T07:30:20;97461.56;;;4.36;100.00
62712;BME280;48772;55.586;37.730;2023-10-09T07:33:50;97466.72;;;4.28;100.00
62712;BME280;48772;55.586;37.730;2023-10-09T07:36:25;97401.03;;;3.78;100.00
62712;BME280;48772;55.586;37.730;2023-10-09T07:39:10;97490.44;;;4.19;100.00
62712;BME280;48772;55.586;37.730;2023-10-09T07:41:41;97487.09;;;4.17;100.00
62712;BME280;48772;55.586;37.730;2023-10-09T07:44:29;97496.81;;;4.16;100.00
62712;BME280;48772;55.586;37.730;2023-10-09T07:47:03;97493.59;;;4.13;100.00
62712;BME280;48772;55.586;37.730;2023-10-09T07:50:06;97496.22;;;4.03;100.00
62712;BME280;48772;55.586;37.730;2023-10-09T07:52:37;97506.50;;;4.06;100.00
62712;BME280;48772;55.586;37.730;2023-10-09T07:55:12;97500.84;;;4.11;100.00
62712;BME280;48772;55.586;37.730;2023-10-09T07:57:53;97516.41;;;4.23;100.00
62712;BME280;48772;55.586;37.730;2023-10-09T08:00:24;97529.31;;;4.36;100.00
62712;BME280;48772;55.586;37.730;2023-10-09T08:03:09;97507.13;;;4.29;100.00
62712;BME280;48772;55.586;37.730;2023-10-09T08:05:55;97537.09;;;4.47;100.00
62712;BME280;48772;55.586;37.730;2023-10-09T08:08:33;97495.00;;;4.26;100.00
62712;BME280;48772;55.586;37.730;2023-10-09T08:11:09;97515.19;;;4.46;100.00
62712;BME280;48772;55.586;37.730;2023-10-09T08:14:10;97526.72;;;4.55;100.00
62712;BME280;48772;55.586;37.730;2023-10-09T08:17:05;97518.09;;;4.43;100.00
62712;BME280;48772;55.586;37.730;2023-10-09T08:19:52;97489.47;;;4.39;100.00
62712;BME280;48772;55.586;37.730;2023-10-09T08:24:51;97543.09;;;4.68;100.00
62712;BME280;48772;55.586;37.730;2023-10-09T08:27:26;97533.00;;;4.73;100.00
62712;BME280;48772;55.586;37.730;2023-10-09T08:30:00;97514.78;;;4.51;100.00
62712;BME280;48772;55.586;37.730;2023-10-09T08:32:49;97494.47;;;4.42;100.00
62712;BME280;48772;55.586;37.730;2023-10-09T08:35:53;97542.13;;;4.59;100.00
62712;BME280;48772;55.586;37.730;2023-10-09T08:38:27;97552.56;;;4.80;100.00
62712;BME280;48772;55.586;37.730;2023-10-09T08:41:07;97559.13;;;4.95;100.00
62712;BME280;48772;55.586;37.730;2023-10-09T08:43:37;97552.13;;;5.03;100.00
62712;BME280;48772;55.586;37.730;2023-10-09T08:46:05;97541.59;;;4.84;100.00
62712;BME280;48772;55.586;37.730;2023-10-09T08:48:31;97566.72;;;4.98;100.00
62712;BME280;48772;55.586;37.730;2023-10-09T08:51:00;97550.75;;;4.90;100.00
62712;BME280;48772;55.586;37.730;2023-10-09T08:53:30;97564.81;;;4.90;100.00
62712;BME280;48772;55.586;37.730;2023-10-09T08:55:58;97571.88;;;4.99;100.00
62712;BME280;48772;55.586;37.730;2023-10-09T08:58:25;97558.13;;;4.86;100.00
62712;BME280;48772;55.586;37.730;2023-10-09T09:01:00;97584.94;;;5.01;100.00
62712;BME280;48772;55.586;37.730;2023-10-09T09:03:41;97582.31;;;5.01;100.00
62712;BME280;48772;55.586;37.730;2023-10-09T09:06:12;97586.06;;;5.08;100.00
62712;BME280;48772;55.586;37.730;2023-10-09T09:08:41;97596.91;;;5.24;100.00
62712;BME280;48772;55.586;37.730;2023-10-09T09:11:21;97586.84;;;5.46;100.00
62712;BME280;48772;55.586;37.730;2023-10-09T09:16:32;97593.25;;;5.44;100.00
62712;BME280;48772;55.586;37.730;2023-10-09T09:19:05;97595.03;;;5.53;100.00
62712;BME280;48772;55.586;37.730;2023-10-09T09:22:01;97575.06;;;5.31;100.00
62712;BME280;48772;55.586;37.730;2023-10-09T09:24:39;97545.47;;;5.09;100.00
62712;BME280;48772;55.586;37.730;2023-10-09T09:27:11;97606.06;;;5.20;100.00
62712;BME280;48772;55.586;37.730;2023-10-09T09:29:57;97564.09;;;4.98;100.00
62712;BME280;48772;55.586;37.730;2023-10-09T09:32:31;97598.84;;;5.12;100.00
62712;BME280;48772;55.586;37.730;2023-10-09T09:35:08;97604.69;;;5.16;100.00
62712;BME280;48772;55.586;37.730;2023-10-09T09:37:54;97592.47;;;4.96;100.00
62712;BME280;48772;55.586;37.730;2023-10-09T09:40:31;97610.53;;;5.00;100.00
62712;BME280;48772;55.586;37.730;2023-10-09T09:43:15;97612.59;;;5.16;100.00
62712;BME280;48772;55.586;37.730;2023-10-09T09:45:49;97588.44;;;5.01;100.00
62712;BME280;48772;55.586;37.730;2023-10-09T09:48:30;97537.97;;;4.76;100.00
62712;BME280;48772;55.586;37.730;2023-10-09T09:50:58;97570.50;;;5.05;100.00
62712;BME280;48772;55.586;37.730;2023-10-09T09:53:25;97606.38;;;5.26;100.00
62712;BME280;48772;55.586;37.730;2023-10-09T09:56:17;97643.88;;;5.49;100.00
62712;BME280;48772;55.586;37.730;2023-10-09T09:58:46;97631.78;;;5.56;100.00
62712;BME280;48772;55.586;37.730;2023-10-09T10:01:20;97575.78;;;5.33;100.00
62712;BME280;48772;55.586;37.730;2023-10-09T10:04:18;97615.50;;;5.51;100.00
62712;BME280;48772;55.586;37.730;2023-10-09T10:07:00;97562.72;;;5.13;100.00
62712;BME280;48772;55.586;37.730;2023-10-09T10:09:40;97641.38;;;5.57;100.00
62712;BME280;48772;55.586;37.730;2023-10-09T10:12:08;97645.69;;;5.58;100.00
62712;BME280;48772;55.586;37.730;2023-10-09T10:17:16;97660.44;;;5.51;100.00
62712;BME280;48772;55.586;37.730;2023-10-09T10:22:30;97619.00;;;5.32;100.00
62712;BME280;48772;55.586;37.730;2023-10-09T10:24:59;97579.53;;;5.02;100.00
62712;BME280;48772;55.586;37.730;2023-10-09T10:27:36;97644.72;;;5.49;100.00
62712;BME280;48772;55.586;37.730;2023-10-09T10:30:32;97646.13;;;5.25;100.00
62712;BME280;48772;55.586;37.730;2023-10-09T10:33:01;97591.63;;;5.05;100.00
62712;BME280;48772;55.586;37.730;2023-10-09T10:35:39;97674.91;;;5.47;100.00
62712;BME280;48772;55.586;37.730;2023-10-09T10:38:32;97665.47;;;5.44;100.00
62712;BME280;48772;55.586;37.730;2023-10-09T10:41:19;97679.91;;;5.59;100.00
62712;BME280;48772;55.586;37.730;2023-10-09T10:43:49;97666.16;;;5.37;100.00
62712;BME280;48772;55.586;37.730;2023-10-09T10:46:22;97698.44;;;5.40;100.00
62712;BME280;48772;55.586;37.730;2023-10-09T10:48:52;97687.28;;;5.27;100.00
62712;BME280;48772;55.586;37.730;2023-10-09T10:51:51;97699.66;;;5.36;100.00
62712;BME280;48772;55.586;37.730;2023-10-09T10:55:12;97709.81;;;5.22;100.00
62712;BME280;48772;55.586;37.730;2023-10-09T10:58:16;97678.06;;;4.93;100.00
62712;BME280;48772;55.586;37.730;2023-10-09T11:00:55;97666.66;;;4.83;100.00
62712;BME280;48772;55.586;37.730;2023-10-09T11:03:25;97681.41;;;4.95;100.00
62712;BME280;48772;55.586;37.730;2023-10-09T11:06:30;97718.97;;;5.18;100.00
62712;BME280;48772;55.586;37.730;2023-10-09T11:09:06;97710.63;;;5.13;100.00
62712;BME280;48772;55.586;37.730;2023-10-09T11:11:50;97737.59;;;5.07;100.00
62712;BME280;48772;55.586;37.730;2023-10-09T11:14:45;97728.69;;;5.08;100.00
62712;BME280;48772;55.586;37.730;2023-10-09T11:17:17;97701.00;;;4.93;100.00
62712;BME280;48772;55.586;37.730;2023-10-09T11:19:51;97704.06;;;4.98;100.00
62712;BME280;48772;55.586;37.730;2023-10-09T11:22:18;97720.75;;;5.08;100.00
62712;BME280;48772;55.586;37.730;2023-10-09T11:24:54;97732.88;;;5.20;100.00
62712;BME280;48772;55.586;37.730;2023-10-09T11:27:41;97731.47;;;5.16;100.00
62712;BME280;48772;55.586;37.730;2023-10-09T11:30:16;97705.88;;;4.97;100.00
62712;BME280;48772;55.586;37.730;2023-10-09T11:33:13;97657.19;;;4.71;100.00
62712;BME280;48772;55.586;37.730;2023-10-09T11:35:55;97735.09;;;5.15;100.00
62712;BME280;48772;55.586;37.730;2023-10-09T11:38:23;97751.94;;;5.33;100.00
62712;BME280;48772;55.586;37.730;2023-10-09T11:40:50;97741.38;;;5.23;100.00
62712;BME280;48772;55.586;37.730;2023-10-09T11:43:19;97749.84;;;5.27;100.00
62712;BME280;48772;55.586;37.730;2023-10-09T11:46:12;97754.44;;;5.25;100.00
62712;BME280;48772;55.586;37.730;2023-10-09T11:48:39;97701.72;;;4.95;100.00
62712;BME280;48772;55.586;37.730;2023-10-09T11:51:34;97755.34;;;5.05;100.00
62712;BME280;48772;55.586;37.730;2023-10-09T11:54:32;97742.78;;;4.78;100.00
62712;BME280;48772;55.586;37.730;2023-10-09T11:56:59;97775.31;;;4.88;100.00
62712;BME280;48772;55.586;37.730;2023-10-09T11:59:29;97773.94;;;4.94;100.00
62712;BME280;48772;55.586;37.730;2023-10-09T12:02:08;97786.63;;;5.00;100.00
62712;BME280;48772;55.586;37.730;2023-10-09T12:04:39;97777.84;;;4.90;100.00
62712;BME280;48772;55.586;37.730;2023-10-09T12:07:08;97783.97;;;4.90;100.00
62712;BME280;48772;55.586;37.730;2023-10-09T12:09:37;97787.38;;;4.81;100.00
62712;BME280;48772;55.586;37.730;2023-10-09T12:12:05;97783.03;;;4.71;100.00
62712;BME280;48772;55.586;37.730;2023-10-09T12:14:33;97793.25;;;4.85;100.00
62712;BME280;48772;55.586;37.730;2023-10-09T12:17:05;97765.81;;;4.67;100.00
62712;BME280;48772;55.586;37.730;2023-10-09T12:19:35;97810.41;;;5.00;100.00
62712;BME280;48772;55.586;37.730;2023-10-09T12:22:04;97814.44;;;5.04;100.00
62712;BME280;48772;55.586;37.730;2023-10-09T12:24:31;97778.09;;;4.87;100.00
62712;BME280;48772;55.586;37.730;2023-10-09T12:27:00;97820.34;;;5.17;100.00
62712;BME280;48772;55.586;37.730;2023-10-09T12:29:26;97777.16;;;4.88;100.00
62712;BME280;48772;55.586;37.730;2023-10-09T12:31:58;97820.44;;;5.06;100.00
62712;BME280;48772;55.586;37.730;2023-10-09T12:34:28;97773.63;;;4.78;100.00
62712;BME280;48772;55.586;37.730;2023-10-09T12:36:55;97827.13;;;5.10;100.00
62712;BME280;48772;55.586;37.730;2023-10-09T12:39:22;97829.63;;;5.11;100.00
62712;BME280;48772;55.586;37.730;2023-10-09T12:41:51;97786.41;;;4.73;100.00
62712;BME280;48772;55.586;37.730;2023-10-09T12:44:20;97823.19;;;4.95;100.00
62712;BME280;48772;55.586;37.730;2023-10-09T12:46:50;97841.25;;;4.99;100.00
62712;BME280;48772;55.586;37.730;2023-10-09T12:49:21;97852.69;;;5.09;100.00
62712;BME280;48772;55.586;37.730;2023-10-09T12:51:58;97838.22;;;5.04;100.00
62712;BME280;48772;55.586;37.730;2023-10-09T12:54:46;97799.44;;;4.74;100.00
62712;BME280;48772;55.586;37.730;2023-10-09T12:57:13;97761.28;;;4.58;100.00
62712;BME280;48772;55.586;37.730;2023-10-09T13:00:07;97863.25;;;5.09;100.00
62712;BME280;48772;55.586;37.730;2023-10-09T13:02:39;97777.69;;;4.52;100.00
62712;BME280;48772;55.586;37.730;2023-10-09T13:05:15;97855.47;;;5.08;100.00
62712;BME280;48772;55.586;37.730;2023-10-09T13:07:53;97830.31;;;4.74;100.00
62712;BME280;48772;55.586;37.730;2023-10-09T13:10:23;97824.56;;;4.69;100.00
62712;BME280;48772;55.586;37.730;2023-10-09T13:12:57;97820.25;;;4.68;100.00
62712;BME280;48772;55.586;37.730;2023-10-09T13:15:37;97839.97;;;4.64;100.00
62712;BME280;48772;55.586;37.730;2023-10-09T13:18:10;97888.47;;;4.93;100.00
62712;BME280;48772;55.586;37.730;2023-10-09T13:20:50;97870.06;;;4.82;100.00
62712;BME280;48772;55.586;37.730;2023-10-09T13:23:23;97885.06;;;4.81;100.00
62712;BME280;48772;55.586;37.730;2023-10-09T13:25:59;97796.69;;;4.25;100.00
62712;BME280;48772;55.586;37.730;2023-10-09T13:28:34;97815.34;;;4.33;100.00
62712;BME280;48772;55.586;37.730;2023-10-09T13:31:04;97899.00;;;4.83;100.00
62712;BME280;48772;55.586;37.730;2023-10-09T13:33:31;97866.63;;;4.61;100.00
62712;BME280;48772;55.586;37.730;2023-10-09T13:36:13;97923.59;;;4.84;100.00
62712;BME280;48772;55.586;37.730;2023-10-09T13:39:01;97914.84;;;4.83;100.00
62712;BME280;48772;55.586;37.730;2023-10-09T13:41:46;97908.78;;;4.72;100.00
62712;BME280;48772;55.586;37.730;2023-10-09T13:44:13;97898.47;;;4.69;100.00
62712;BME280;48772;55.586;37.730;2023-10-09T13:46:40;97869.63;;;4.36;100.00
62712;BME280;48772;55.586;37.730;2023-10-09T13:49:11;97910.44;;;4.52;100.00
62712;BME280;48772;55.586;37.730;2023-10-09T13:51:41;97927.44;;;4.59;100.00
62712;BME280;48772;55.586;37.730;2023-10-09T13:54:13;97834.94;;;3.99;100.00
62712;BME280;48772;55.586;37.730;2023-10-09T13:56:58;97919.38;;;4.40;100.00